sensor_id;sensor_type;location;lat;lon;timestamp;P1;durP1;ratioP1;P2;durP2;ratioP2
16450;SDS011;12243;42.708;23.310;2023-05-07T00:02:25;15.47;;;11.93;;
16450;SDS011;12243;42.708;23.310;2023-05-07T00:04:52;17.23;;;11.70;;
16450;SDS011;12243;42.708;23.310;2023-05-07T00:07:18;14.13;;;10.90;;
16450;SDS011;12243;42.708;23.310;2023-05-07T00:09:45;12.47;;;10.80;;
16450;SDS011;12243;42.708;23.310;2023-05-07T00:12:12;12.17;;;11.00;;
16450;SDS011;12243;42.708;23.310;2023-05-07T00:14:39;12.40;;;10.40;;
16450;SDS011;12243;42.708;23.310;2023-05-07T00:17:07;11.97;;;10.70;;
16450;SDS011;12243;42.708;23.310;2023-05-07T00:19:34;12.17;;;10.90;;
16450;SDS011;12243;42.708;23.310;2023-05-07T00:22:01;12.63;;;11.37;;
16450;SDS011;12243;42.708;23.310;2023-05-07T00:24:28;13.10;;;11.70;;
16450;SDS011;12243;42.708;23.310;2023-05-07T00:26:55;12.93;;;11.53;;
16450;SDS011;12243;42.708;23.310;2023-05-07T00:29:23;14.60;;;11.73;;
16450;SDS011;12243;42.708;23.310;2023-05-07T00:31:50;13.77;;;11.40;;
16450;SDS011;12243;42.708;23.310;2023-05-07T00:34:20;14.83;;;12.03;;
16450;SDS011;12243;42.708;23.310;2023-05-07T00:36:47;12.20;;;10.97;;
16450;SDS011;12243;42.708;23.310;2023-05-07T00:39:14;12.73;;;11.20;;
16450;SDS011;12243;42.708;23.310;2023-05-07T00:41:41;14.70;;;10.20;;
16450;SDS011;12243;42.708;23.310;2023-05-07T00:44:08;15.00;;;11.53;;
16450;SDS011;12243;42.708;23.310;2023-05-07T00:46:35;14.13;;;10.53;;
16450;SDS011;12243;42.708;23.310;2023-05-07T00:49:02;11.70;;;10.17;;
16450;SDS011;12243;42.708;23.310;2023-05-07T00:51:30;11.40;;;9.70;;
16450;SDS011;12243;42.708;23.310;2023-05-07T00:53:57;12.43;;;9.93;;
16450;SDS011;12243;42.708;23.310;2023-05-07T00:56:24;13.27;;;10.33;;
16450;SDS011;12243;42.708;23.310;2023-05-07T00:58:51;12.77;;;9.90;;
16450;SDS011;12243;42.708;23.310;2023-05-07T01:01:18;14.80;;;10.47;;
16450;SDS011;12243;42.708;23.310;2023-05-07T01:03:45;10.23;;;9.23;;
16450;SDS011;12243;42.708;23.310;2023-05-07T01:06:12;9.73;;;8.73;;
16450;SDS011;12243;42.708;23.310;2023-05-07T01:08:43;13.47;;;9.70;;
16450;SDS011;12243;42.708;23.310;2023-05-07T01:11:11;12.00;;;9.67;;
16450;SDS011;12243;42.708;23.310;2023-05-07T01:13:38;11.00;;;10.00;;
16450;SDS011;12243;42.708;23.310;2023-05-07T01:16:06;11.70;;;10.50;;
16450;SDS011;12243;42.708;23.310;2023-05-07T01:18:35;10.73;;;9.37;;
16450;SDS011;12243;42.708;23.310;2023-05-07T01:21:03;10.87;;;9.77;;
16450;SDS011;12243;42.708;23.310;2023-05-07T01:23:33;12.23;;;11.00;;
16450;SDS011;12243;42.708;23.310;2023-05-07T01:26:01;12.27;;;10.93;;
16450;SDS011;12243;42.708;23.310;2023-05-07T01:28:31;12.37;;;10.90;;
16450;SDS011;12243;42.708;23.310;2023-05-07T01:31:00;13.67;;;11.17;;
16450;SDS011;12243;42.708;23.310;2023-05-07T01:33:33;14.20;;;10.73;;
16450;SDS011;12243;42.708;23.310;2023-05-07T01:36:01;14.07;;;11.87;;
16450;SDS011;12243;42.708;23.310;2023-05-07T01:38:33;15.23;;;11.60;;
16450;SDS011;12243;42.708;23.310;2023-05-07T01:41:00;14.07;;;11.00;;
16450;SDS011;12243;42.708;23.310;2023-05-07T01:43:28;10.53;;;9.43;;
16450;SDS011;12243;42.708;23.310;2023-05-07T01:45:55;10.67;;;9.60;;
16450;SDS011;12243;42.708;23.310;2023-05-07T01:48:24;12.47;;;10.70;;
16450;SDS011;12243;42.708;23.310;2023-05-07T01:50:51;13.83;;;8.83;;
16450;SDS011;12243;42.708;23.310;2023-05-07T01:53:18;9.43;;;8.53;;
16450;SDS011;12243;42.708;23.310;2023-05-07T01:55:47;10.43;;;9.00;;
16450;SDS011;12243;42.708;23.310;2023-05-07T01:58:15;8.87;;;8.00;;
16450;SDS011;12243;42.708;23.310;2023-05-07T02:00:42;7.93;;;7.23;;
16450;SDS011;12243;42.708;23.310;2023-05-07T02:03:09;12.10;;;8.30;;
16450;SDS011;12243;42.708;23.310;2023-05-07T02:05:43;8.27;;;7.43;;
16450;SDS011;12243;42.708;23.310;2023-05-07T02:08:20;8.57;;;7.67;;
16450;SDS011;12243;42.708;23.310;2023-05-07T02:10:49;8.13;;;7.30;;
16450;SDS011;12243;42.708;23.310;2023-05-07T02:13:16;9.43;;;7.80;;
16450;SDS011;12243;42.708;23.310;2023-05-07T02:15:45;7.77;;;6.97;;
16450;SDS011;12243;42.708;23.310;2023-05-07T02:18:16;10.33;;;7.60;;
16450;SDS011;12243;42.708;23.310;2023-05-07T02:20:43;8.40;;;7.60;;
16450;SDS011;12243;42.708;23.310;2023-05-07T02:23:10;7.20;;;6.60;;
16450;SDS011;12243;42.708;23.310;2023-05-07T02:25:37;8.40;;;7.53;;
16450;SDS011;12243;42.708;23.310;2023-05-07T02:28:06;8.07;;;7.37;;
16450;SDS011;12243;42.708;23.310;2023-05-07T02:30:55;13.27;;;7.50;;
16450;SDS011;12243;42.708;23.310;2023-05-07T02:33:24;7.97;;;7.27;;
16450;SDS011;12243;42.708;23.310;2023-05-07T02:35:50;9.67;;;7.27;;
16450;SDS011;12243;42.708;23.310;2023-05-07T02:38:17;9.33;;;8.10;;
16450;SDS011;12243;42.708;23.310;2023-05-07T02:40:44;9.60;;;7.30;;
16450;SDS011;12243;42.708;23.310;2023-05-07T02:43:13;9.03;;;8.13;;
16450;SDS011;12243;42.708;23.310;2023-05-07T02:45:43;9.33;;;8.20;;
16450;SDS011;12243;42.708;23.310;2023-05-07T02:48:10;11.17;;;8.27;;
16450;SDS011;12243;42.708;23.310;2023-05-07T02:50:38;9.87;;;8.80;;
16450;SDS011;12243;42.708;23.310;2023-05-07T02:53:04;8.43;;;7.73;;
16450;SDS011;12243;42.708;23.310;2023-05-07T02:55:31;10.63;;;8.27;;
16450;SDS011;12243;42.708;23.310;2023-05-07T02:57:58;10.03;;;9.00;;
16450;SDS011;12243;42.708;23.310;2023-05-07T03:00:27;11.20;;;8.93;;
16450;SDS011;12243;42.708;23.310;2023-05-07T03:03:14;12.27;;;9.93;;
16450;SDS011;12243;42.708;23.310;2023-05-07T03:05:41;10.70;;;9.60;;
16450;SDS011;12243;42.708;23.310;2023-05-07T03:08:08;14.53;;;10.40;;
16450;SDS011;12243;42.708;23.310;2023-05-07T03:10:35;11.23;;;10.07;;
16450;SDS011;12243;42.708;23.310;2023-05-07T03:13:03;10.13;;;9.13;;
16450;SDS011;12243;42.708;23.310;2023-05-07T03:15:32;11.73;;;10.47;;
16450;SDS011;12243;42.708;23.310;2023-05-07T03:17:59;10.77;;;9.67;;
16450;SDS011;12243;42.708;23.310;2023-05-07T03:20:26;13.93;;;11.80;;
16450;SDS011;12243;42.708;23.310;2023-05-07T03:22:53;11.57;;;10.40;;
16450;SDS011;12243;42.708;23.310;2023-05-07T03:25:20;13.60;;;11.07;;
16450;SDS011;12243;42.708;23.310;2023-05-07T03:27:47;11.67;;;10.17;;
16450;SDS011;12243;42.708;23.310;2023-05-07T03:30:17;14.47;;;12.23;;
16450;SDS011;12243;42.708;23.310;2023-05-07T03:32:46;14.90;;;12.77;;
16450;SDS011;12243;42.708;23.310;2023-05-07T03:35:13;20.43;;;15.17;;
16450;SDS011;12243;42.708;23.310;2023-05-07T03:37:40;16.00;;;11.37;;
16450;SDS011;12243;42.708;23.310;2023-05-07T03:40:09;13.10;;;11.67;;
16450;SDS011;12243;42.708;23.310;2023-05-07T03:42:44;12.47;;;11.27;;
16450;SDS011;12243;42.708;23.310;2023-05-07T03:45:12;11.23;;;10.07;;
16450;SDS011;12243;42.708;23.310;2023-05-07T03:47:44;12.47;;;10.53;;
16450;SDS011;12243;42.708;23.310;2023-05-07T03:50:16;10.60;;;9.50;;
16450;SDS011;12243;42.708;23.310;2023-05-07T03:52:43;13.97;;;9.83;;
16450;SDS011;12243;42.708;23.310;2023-05-07T03:55:11;11.30;;;10.27;;
16450;SDS011;12243;42.708;23.310;2023-05-07T03:57:43;13.47;;;11.37;;
16450;SDS011;12243;42.708;23.310;2023-05-07T04:00:10;11.50;;;10.40;;
16450;SDS011;12243;42.708;23.310;2023-05-07T04:02:47;11.60;;;9.80;;
16450;SDS011;12243;42.708;23.310;2023-05-07T04:05:22;12.03;;;10.43;;
16450;SDS011;12243;42.708;23.310;2023-05-07T04:07:53;12.47;;;10.37;;
16450;SDS011;12243;42.708;23.310;2023-05-07T04:10:26;10.07;;;9.00;;
16450;SDS011;12243;42.708;23.310;2023-05-07T04:12:55;10.17;;;9.13;;
16450;SDS011;12243;42.708;23.310;2023-05-07T04:15:24;10.00;;;9.00;;
16450;SDS011;12243;42.708;23.310;2023-05-07T04:17:51;11.83;;;8.13;;
16450;SDS011;12243;42.708;23.310;2023-05-07T04:20:22;13.13;;;7.97;;
16450;SDS011;12243;42.708;23.310;2023-05-07T04:22:55;10.33;;;9.23;;
16450;SDS011;12243;42.708;23.310;2023-05-07T04:25:23;9.77;;;8.77;;
16450;SDS011;12243;42.708;23.310;2023-05-07T04:27:53;10.93;;;9.13;;
16450;SDS011;12243;42.708;23.310;2023-05-07T04:30:23;9.10;;;8.30;;
16450;SDS011;12243;42.708;23.310;2023-05-07T04:32:51;11.20;;;9.07;;
16450;SDS011;12243;42.708;23.310;2023-05-07T04:35:19;10.73;;;8.63;;
16450;SDS011;12243;42.708;23.310;2023-05-07T04:37:48;9.73;;;8.73;;
16450;SDS011;12243;42.708;23.310;2023-05-07T04:40:16;9.93;;;8.93;;
16450;SDS011;12243;42.708;23.310;2023-05-07T04:42:43;11.73;;;9.70;;
16450;SDS011;12243;42.708;23.310;2023-05-07T04:45:11;13.63;;;9.00;;
16450;SDS011;12243;42.708;23.310;2023-05-07T04:47:41;10.23;;;9.23;;
16450;SDS011;12243;42.708;23.310;2023-05-07T04:50:08;11.77;;;8.57;;
16450;SDS011;12243;42.708;23.310;2023-05-07T04:52:37;10.50;;;8.63;;
16450;SDS011;12243;42.708;23.310;2023-05-07T04:55:06;8.87;;;8.07;;
16450;SDS011;12243;42.708;23.310;2023-05-07T04:57:37;9.03;;;8.13;;
16450;SDS011;12243;42.708;23.310;2023-05-07T05:00:05;8.73;;;7.90;;
16450;SDS011;12243;42.708;23.310;2023-05-07T05:02:36;9.10;;;8.20;;
16450;SDS011;12243;42.708;23.310;2023-05-07T05:05:03;10.43;;;8.30;;
16450;SDS011;12243;42.708;23.310;2023-05-07T05:07:31;10.70;;;8.07;;
16450;SDS011;12243;42.708;23.310;2023-05-07T05:09:58;9.57;;;8.63;;
16450;SDS011;12243;42.708;23.310;2023-05-07T05:12:27;10.47;;;8.77;;
16450;SDS011;12243;42.708;23.310;2023-05-07T05:14:54;9.10;;;8.20;;
16450;SDS011;12243;42.708;23.310;2023-05-07T05:17:21;9.53;;;8.63;;
16450;SDS011;12243;42.708;23.310;2023-05-07T05:19:48;9.20;;;7.93;;
16450;SDS011;12243;42.708;23.310;2023-05-07T05:22:16;9.10;;;8.20;;
16450;SDS011;12243;42.708;23.310;2023-05-07T05:24:43;10.60;;;8.02;;
16450;SDS011;12243;42.708;23.310;2023-05-07T05:27:10;9.35;;;8.38;;
16450;SDS011;12243;42.708;23.310;2023-05-07T05:29:38;9.82;;;8.82;;
16450;SDS011;12243;42.708;23.310;2023-05-07T05:32:06;11.88;;;8.45;;
16450;SDS011;12243;42.708;23.310;2023-05-07T05:34:33;9.73;;;8.82;;
16450;SDS011;12243;42.708;23.310;2023-05-07T05:37:01;9.60;;;8.70;;
16450;SDS011;12243;42.708;23.310;2023-05-07T05:39:28;12.88;;;8.88;;
16450;SDS011;12243;42.708;23.310;2023-05-07T05:41:54;10.75;;;8.85;;
16450;SDS011;12243;42.708;23.310;2023-05-07T05:44:22;9.63;;;8.57;;
16450;SDS011;12243;42.708;23.310;2023-05-07T05:46:50;13.27;;;9.60;;
16450;SDS011;12243;42.708;23.310;2023-05-07T05:49:17;10.93;;;8.88;;
16450;SDS011;12243;42.708;23.310;2023-05-07T05:51:44;14.70;;;10.23;;
16450;SDS011;12243;42.708;23.310;2023-05-07T05:54:12;11.45;;;10.35;;
16450;SDS011;12243;42.708;23.310;2023-05-07T05:56:40;12.60;;;11.05;;
16450;SDS011;12243;42.708;23.310;2023-05-07T05:59:08;10.93;;;10.02;;
16450;SDS011;12243;42.708;23.310;2023-05-07T06:01:35;11.18;;;10.05;;
16450;SDS011;12243;42.708;23.310;2023-05-07T06:04:05;10.82;;;9.73;;
16450;SDS011;12243;42.708;23.310;2023-05-07T06:06:33;11.02;;;9.93;;
16450;SDS011;12243;42.708;23.310;2023-05-07T06:09:01;11.45;;;10.30;;
16450;SDS011;12243;42.708;23.310;2023-05-07T06:11:35;12.52;;;11.30;;
16450;SDS011;12243;42.708;23.310;2023-05-07T06:14:02;11.10;;;10.02;;
16450;SDS011;12243;42.708;23.310;2023-05-07T06:16:30;11.00;;;9.93;;
16450;SDS011;12243;42.708;23.310;2023-05-07T06:18:57;10.52;;;9.52;;
16450;SDS011;12243;42.708;23.310;2023-05-07T06:21:25;11.30;;;10.10;;
16450;SDS011;12243;42.708;23.310;2023-05-07T06:23:52;10.32;;;9.32;;
16450;SDS011;12243;42.708;23.310;2023-05-07T06:26:20;11.05;;;9.95;;
16450;SDS011;12243;42.708;23.310;2023-05-07T06:28:47;11.77;;;10.48;;
16450;SDS011;12243;42.708;23.310;2023-05-07T06:31:16;10.98;;;9.88;;
16450;SDS011;12243;42.708;23.310;2023-05-07T06:33:51;11.32;;;10.30;;
16450;SDS011;12243;42.708;23.310;2023-05-07T06:36:18;10.77;;;9.70;;
16450;SDS011;12243;42.708;23.310;2023-05-07T06:38:47;11.35;;;10.25;;
16450;SDS011;12243;42.708;23.310;2023-05-07T06:41:14;10.98;;;9.90;;
16450;SDS011;12243;42.708;23.310;2023-05-07T06:43:42;11.07;;;10.00;;
16450;SDS011;12243;42.708;23.310;2023-05-07T06:46:30;10.70;;;9.57;;
16450;SDS011;12243;42.708;23.310;2023-05-07T06:48:57;13.50;;;11.38;;
16450;SDS011;12243;42.708;23.310;2023-05-07T06:51:25;37.45;;;20.92;;
16450;SDS011;12243;42.708;23.310;2023-05-07T06:53:54;12.85;;;11.65;;
16450;SDS011;12243;42.708;23.310;2023-05-07T06:56:21;11.23;;;10.13;;
16450;SDS011;12243;42.708;23.310;2023-05-07T06:58:49;12.48;;;9.45;;
16450;SDS011;12243;42.708;23.310;2023-05-07T07:01:17;11.25;;;10.15;;
16450;SDS011;12243;42.708;23.310;2023-05-07T07:03:44;9.85;;;9.00;;
16450;SDS011;12243;42.708;23.310;2023-05-07T07:06:10;15.40;;;11.02;;
16450;SDS011;12243;42.708;23.310;2023-05-07T07:08:37;10.52;;;9.52;;
16450;SDS011;12243;42.708;23.310;2023-05-07T07:11:07;10.30;;;9.27;;
16450;SDS011;12243;42.708;23.310;2023-05-07T07:13:35;11.50;;;10.15;;
16450;SDS011;12243;42.708;23.310;2023-05-07T07:16:02;11.30;;;9.57;;
16450;SDS011;12243;42.708;23.310;2023-05-07T07:18:29;13.25;;;11.70;;
16450;SDS011;12243;42.708;23.310;2023-05-07T07:20:57;12.48;;;11.13;;
16450;SDS011;12243;42.708;23.310;2023-05-07T07:23:25;10.95;;;9.85;;
16450;SDS011;12243;42.708;23.310;2023-05-07T07:25:52;11.20;;;10.10;;
16450;SDS011;12243;42.708;23.310;2023-05-07T07:28:21;11.15;;;10.05;;
16450;SDS011;12243;42.708;23.310;2023-05-07T07:30:49;11.60;;;9.75;;
16450;SDS011;12243;42.708;23.310;2023-05-07T07:33:16;9.85;;;8.93;;
16450;SDS011;12243;42.708;23.310;2023-05-07T07:35:43;14.63;;;10.07;;
16450;SDS011;12243;42.708;23.310;2023-05-07T07:38:10;12.50;;;10.05;;
16450;SDS011;12243;42.708;23.310;2023-05-07T07:40:38;10.95;;;9.23;;
16450;SDS011;12243;42.708;23.310;2023-05-07T07:43:07;12.48;;;9.40;;
16450;SDS011;12243;42.708;23.310;2023-05-07T07:45:35;11.88;;;8.98;;
16450;SDS011;12243;42.708;23.310;2023-05-07T07:48:02;9.85;;;8.85;;
16450;SDS011;12243;42.708;23.310;2023-05-07T07:50:33;11.10;;;8.65;;
16450;SDS011;12243;42.708;23.310;2023-05-07T07:53:00;8.82;;;8.05;;
16450;SDS011;12243;42.708;23.310;2023-05-07T07:55:28;11.00;;;8.88;;
16450;SDS011;12243;42.708;23.310;2023-05-07T07:57:56;9.00;;;8.13;;
16450;SDS011;12243;42.708;23.310;2023-05-07T08:00:23;10.68;;;7.35;;
16450;SDS011;12243;42.708;23.310;2023-05-07T08:02:55;8.25;;;7.43;;
16450;SDS011;12243;42.708;23.310;2023-05-07T08:05:27;9.32;;;8.25;;
16450;SDS011;12243;42.708;23.310;2023-05-07T08:07:54;10.30;;;7.78;;
16450;SDS011;12243;42.708;23.310;2023-05-07T08:10:26;9.32;;;8.43;;
16450;SDS011;12243;42.708;23.310;2023-05-07T08:12:59;8.95;;;7.90;;
16450;SDS011;12243;42.708;23.310;2023-05-07T08:15:27;8.57;;;7.78;;
16450;SDS011;12243;42.708;23.310;2023-05-07T08:17:54;9.80;;;8.77;;
16450;SDS011;12243;42.708;23.310;2023-05-07T08:20:23;8.60;;;7.80;;
16450;SDS011;12243;42.708;23.310;2023-05-07T08:22:51;8.85;;;7.95;;
16450;SDS011;12243;42.708;23.310;2023-05-07T08:25:18;8.82;;;8.02;;
16450;SDS011;12243;42.708;23.310;2023-05-07T08:27:45;8.93;;;8.02;;
16450;SDS011;12243;42.708;23.310;2023-05-07T08:30:13;10.48;;;9.07;;
16450;SDS011;12243;42.708;23.310;2023-05-07T08:32:40;9.20;;;8.00;;
16450;SDS011;12243;42.708;23.310;2023-05-07T08:35:09;9.75;;;7.45;;
16450;SDS011;12243;42.708;23.310;2023-05-07T08:37:36;8.73;;;7.00;;
16450;SDS011;12243;42.708;23.310;2023-05-07T08:40:05;7.78;;;7.07;;
16450;SDS011;12243;42.708;23.310;2023-05-07T08:42:35;9.48;;;7.30;;
16450;SDS011;12243;42.708;23.310;2023-05-07T08:45:04;6.78;;;6.22;;
16450;SDS011;12243;42.708;23.310;2023-05-07T08:47:40;7.65;;;6.90;;
16450;SDS011;12243;42.708;23.310;2023-05-07T08:50:11;9.65;;;6.15;;
16450;SDS011;12243;42.708;23.310;2023-05-07T08:52:39;6.35;;;5.57;;
16450;SDS011;12243;42.708;23.310;2023-05-07T08:55:07;10.50;;;6.28;;
16450;SDS011;12243;42.708;23.310;2023-05-07T08:57:35;6.80;;;6.05;;
16450;SDS011;12243;42.708;23.310;2023-05-07T09:00:04;6.30;;;5.70;;
16450;SDS011;12243;42.708;23.310;2023-05-07T09:02:35;8.27;;;6.20;;
16450;SDS011;12243;42.708;23.310;2023-05-07T09:05:02;6.15;;;5.57;;
16450;SDS011;12243;42.708;23.310;2023-05-07T09:07:31;7.00;;;6.38;;
16450;SDS011;12243;42.708;23.310;2023-05-07T09:10:00;5.50;;;5.00;;
16450;SDS011;12243;42.708;23.310;2023-05-07T09:12:28;6.78;;;5.38;;
16450;SDS011;12243;42.708;23.310;2023-05-07T09:14:55;7.78;;;5.05;;
16450;SDS011;12243;42.708;23.310;2023-05-07T09:17:22;7.10;;;5.00;;
16450;SDS011;12243;42.708;23.310;2023-05-07T09:19:49;5.45;;;4.95;;
16450;SDS011;12243;42.708;23.310;2023-05-07T09:22:16;8.02;;;5.25;;
16450;SDS011;12243;42.708;23.310;2023-05-07T09:24:54;5.72;;;5.22;;
16450;SDS011;12243;42.708;23.310;2023-05-07T09:27:24;5.47;;;4.97;;
16450;SDS011;12243;42.708;23.310;2023-05-07T09:29:54;5.80;;;4.90;;
16450;SDS011;12243;42.708;23.310;2023-05-07T09:32:21;6.82;;;5.03;;
16450;SDS011;12243;42.708;23.310;2023-05-07T09:34:48;4.85;;;4.45;;
16450;SDS011;12243;42.708;23.310;2023-05-07T09:37:18;4.93;;;4.55;;
16450;SDS011;12243;42.708;23.310;2023-05-07T09:39:46;7.82;;;4.78;;
16450;SDS011;12243;42.708;23.310;2023-05-07T09:42:22;4.45;;;4.05;;
16450;SDS011;12243;42.708;23.310;2023-05-07T09:44:50;4.88;;;4.22;;
16450;SDS011;12243;42.708;23.310;2023-05-07T09:47:22;4.80;;;4.40;;
16450;SDS011;12243;42.708;23.310;2023-05-07T09:49:54;5.15;;;4.22;;
16450;SDS011;12243;42.708;23.310;2023-05-07T09:52:23;4.63;;;4.22;;
16450;SDS011;12243;42.708;23.310;2023-05-07T09:54:53;3.90;;;3.70;;
16450;SDS011;12243;42.708;23.310;2023-05-07T09:57:25;4.60;;;4.18;;
16450;SDS011;12243;42.708;23.310;2023-05-07T09:59:58;6.57;;;3.78;;
16450;SDS011;12243;42.708;23.310;2023-05-07T10:02:35;4.10;;;3.80;;
16450;SDS011;12243;42.708;23.310;2023-05-07T10:05:03;3.83;;;3.63;;
16450;SDS011;12243;42.708;23.310;2023-05-07T10:07:33;4.32;;;3.97;;
16450;SDS011;12243;42.708;23.310;2023-05-07T10:10:05;3.92;;;3.72;;
16450;SDS011;12243;42.708;23.310;2023-05-07T10:12:38;4.50;;;3.88;;
16450;SDS011;12243;42.708;23.310;2023-05-07T10:15:13;4.43;;;3.75;;
16450;SDS011;12243;42.708;23.310;2023-05-07T10:17:44;3.17;;;2.88;;
16450;SDS011;12243;42.708;23.310;2023-05-07T10:20:12;3.60;;;3.15;;
16450;SDS011;12243;42.708;23.310;2023-05-07T10:22:41;5.65;;;2.90;;
16450;SDS011;12243;42.708;23.310;2023-05-07T10:25:16;3.92;;;3.00;;
16450;SDS011;12243;42.708;23.310;2023-05-07T10:28:00;2.63;;;2.53;;
16450;SDS011;12243;42.708;23.310;2023-05-07T10:30:38;3.70;;;3.06;;
16450;SDS011;12243;42.708;23.310;2023-05-07T10:33:15;4.93;;;3.00;;
16450;SDS011;12243;42.708;23.310;2023-05-07T10:35:47;2.95;;;2.85;;
16450;SDS011;12243;42.708;23.310;2023-05-07T10:38:15;3.70;;;3.50;;
16450;SDS011;12243;42.708;23.310;2023-05-07T10:40:44;3.67;;;3.38;;
16450;SDS011;12243;42.708;23.310;2023-05-07T10:43:12;3.33;;;3.05;;
16450;SDS011;12243;42.708;23.310;2023-05-07T10:45:49;3.80;;;3.38;;
16450;SDS011;12243;42.708;23.310;2023-05-07T10:52:13;3.63;;;3.30;;
16450;SDS011;12243;42.708;23.310;2023-05-07T10:55:20;3.75;;;3.22;;
16450;SDS011;12243;42.708;23.310;2023-05-07T10:58:24;4.28;;;3.10;;
16450;SDS011;12243;42.708;23.310;2023-05-07T11:00:58;3.58;;;3.28;;
16450;SDS011;12243;42.708;23.310;2023-05-07T11:03:37;3.45;;;3.15;;
16450;SDS011;12243;42.708;23.310;2023-05-07T11:06:56;4.00;;;3.70;;
16450;SDS011;12243;42.708;23.310;2023-05-07T11:10:02;4.85;;;3.42;;
16450;SDS011;12243;42.708;23.310;2023-05-07T11:12:54;3.40;;;3.20;;
16450;SDS011;12243;42.708;23.310;2023-05-07T11:15:39;3.67;;;3.25;;
16450;SDS011;12243;42.708;23.310;2023-05-07T11:18:21;3.17;;;2.92;;
16450;SDS011;12243;42.708;23.310;2023-05-07T11:20:51;3.10;;;2.97;;
16450;SDS011;12243;42.708;23.310;2023-05-07T11:23:55;3.53;;;3.25;;
16450;SDS011;12243;42.708;23.310;2023-05-07T11:26:45;3.15;;;3.03;;
16450;SDS011;12243;42.708;23.310;2023-05-07T11:29:14;4.60;;;3.00;;
16450;SDS011;12243;42.708;23.310;2023-05-07T11:31:44;7.20;;;3.00;;
16450;SDS011;12243;42.708;23.310;2023-05-07T11:34:20;3.22;;;2.92;;
16450;SDS011;12243;42.708;23.310;2023-05-07T11:36:48;4.32;;;3.05;;
16450;SDS011;12243;42.708;23.310;2023-05-07T11:39:27;2.97;;;2.88;;
16450;SDS011;12243;42.708;23.310;2023-05-07T11:41:55;3.40;;;3.20;;
16450;SDS011;12243;42.708;23.310;2023-05-07T11:44:22;3.35;;;3.15;;
16450;SDS011;12243;42.708;23.310;2023-05-07T11:46:50;5.28;;;3.05;;
16450;SDS011;12243;42.708;23.310;2023-05-07T11:49:17;3.10;;;2.90;;
16450;SDS011;12243;42.708;23.310;2023-05-07T11:51:44;3.30;;;3.10;;
16450;SDS011;12243;42.708;23.310;2023-05-07T11:54:11;6.55;;;3.53;;
16450;SDS011;12243;42.708;23.310;2023-05-07T11:56:43;3.08;;;2.88;;
16450;SDS011;12243;42.708;23.310;2023-05-07T11:59:11;5.05;;;2.50;;
16450;SDS011;12243;42.708;23.310;2023-05-07T12:01:37;3.17;;;2.97;;
16450;SDS011;12243;42.708;23.310;2023-05-07T12:04:06;3.05;;;2.85;;
16450;SDS011;12243;42.708;23.310;2023-05-07T12:06:35;2.85;;;2.60;;
16450;SDS011;12243;42.708;23.310;2023-05-07T12:09:03;2.67;;;2.58;;
16450;SDS011;12243;42.708;23.310;2023-05-07T12:11:32;3.05;;;2.80;;
16450;SDS011;12243;42.708;23.310;2023-05-07T12:13:59;2.40;;;2.30;;
16450;SDS011;12243;42.708;23.310;2023-05-07T12:16:26;2.78;;;2.35;;
16450;SDS011;12243;42.708;23.310;2023-05-07T12:18:53;2.92;;;2.70;;
16450;SDS011;12243;42.708;23.310;2023-05-07T12:21:22;3.38;;;2.30;;
16450;SDS011;12243;42.708;23.310;2023-05-07T12:23:50;2.70;;;2.60;;
16450;SDS011;12243;42.708;23.310;2023-05-07T12:26:18;2.80;;;2.70;;
16450;SDS011;12243;42.708;23.310;2023-05-07T12:28:45;3.00;;;2.80;;
16450;SDS011;12243;42.708;23.310;2023-05-07T12:31:13;2.90;;;2.65;;
16450;SDS011;12243;42.708;23.310;2023-05-07T12:33:42;2.45;;;2.28;;
16450;SDS011;12243;42.708;23.310;2023-05-07T12:36:11;3.05;;;2.53;;
16450;SDS011;12243;42.708;23.310;2023-05-07T12:38:40;2.95;;;2.60;;
16450;SDS011;12243;42.708;23.310;2023-05-07T12:41:08;2.70;;;2.60;;
16450;SDS011;12243;42.708;23.310;2023-05-07T12:43:36;3.50;;;2.60;;
16450;SDS011;12243;42.708;23.310;2023-05-07T12:46:04;2.65;;;2.55;;
16450;SDS011;12243;42.708;23.310;2023-05-07T12:48:32;3.72;;;2.90;;
16450;SDS011;12243;42.708;23.310;2023-05-07T12:51:00;2.90;;;2.65;;
16450;SDS011;12243;42.708;23.310;2023-05-07T12:53:28;3.58;;;2.90;;
16450;SDS011;12243;42.708;23.310;2023-05-07T12:55:58;3.90;;;2.78;;
16450;SDS011;12243;42.708;23.310;2023-05-07T12:58:26;2.85;;;2.70;;
16450;SDS011;12243;42.708;23.310;2023-05-07T13:00:54;2.60;;;2.45;;
16450;SDS011;12243;42.708;23.310;2023-05-07T13:03:24;2.83;;;2.63;;
16450;SDS011;12243;42.708;23.310;2023-05-07T13:05:52;3.70;;;2.80;;
16450;SDS011;12243;42.708;23.310;2023-05-07T13:08:29;2.83;;;2.70;;
16450;SDS011;12243;42.708;23.310;2023-05-07T13:10:59;3.70;;;2.90;;
16450;SDS011;12243;42.708;23.310;2023-05-07T13:13:28;3.22;;;3.03;;
16450;SDS011;12243;42.708;23.310;2023-05-07T13:15:55;3.00;;;2.80;;
16450;SDS011;12243;42.708;23.310;2023-05-07T13:18:24;3.35;;;3.05;;
16450;SDS011;12243;42.708;23.310;2023-05-07T13:20:51;4.70;;;4.40;;
16450;SDS011;12243;42.708;23.310;2023-05-07T13:23:18;5.05;;;4.60;;
16450;SDS011;12243;42.708;23.310;2023-05-07T13:25:45;3.75;;;3.45;;
16450;SDS011;12243;42.708;23.310;2023-05-07T13:28:13;3.13;;;3.00;;
16450;SDS011;12243;42.708;23.310;2023-05-07T13:30:40;4.15;;;2.70;;
16450;SDS011;12243;42.708;23.310;2023-05-07T13:33:08;3.08;;;2.88;;
16450;SDS011;12243;42.708;23.310;2023-05-07T13:35:35;3.10;;;2.83;;
16450;SDS011;12243;42.708;23.310;2023-05-07T13:38:02;6.65;;;3.22;;
16450;SDS011;12243;42.708;23.310;2023-05-07T13:40:28;2.97;;;2.80;;
16450;SDS011;12243;42.708;23.310;2023-05-07T13:42:56;3.00;;;2.90;;
16450;SDS011;12243;42.708;23.310;2023-05-07T13:45:28;5.25;;;3.00;;
16450;SDS011;12243;42.708;23.310;2023-05-07T13:47:56;4.38;;;3.13;;
16450;SDS011;12243;42.708;23.310;2023-05-07T13:50:23;3.47;;;2.92;;
16450;SDS011;12243;42.708;23.310;2023-05-07T13:52:52;2.75;;;2.60;;
16450;SDS011;12243;42.708;23.310;2023-05-07T13:55:19;5.20;;;2.80;;
16450;SDS011;12243;42.708;23.310;2023-05-07T13:57:47;5.00;;;3.15;;
16450;SDS011;12243;42.708;23.310;2023-05-07T14:00:14;3.33;;;3.03;;
16450;SDS011;12243;42.708;23.310;2023-05-07T14:02:42;3.03;;;2.80;;
16450;SDS011;12243;42.708;23.310;2023-05-07T14:05:09;2.95;;;2.35;;
16450;SDS011;12243;42.708;23.310;2023-05-07T14:07:37;3.00;;;2.67;;
16450;SDS011;12243;42.708;23.310;2023-05-07T14:10:04;2.90;;;2.72;;
16450;SDS011;12243;42.708;23.310;2023-05-07T14:12:32;3.63;;;3.40;;
16450;SDS011;12243;42.708;23.310;2023-05-07T14:14:58;7.15;;;6.55;;
16450;SDS011;12243;42.708;23.310;2023-05-07T14:17:25;2.97;;;2.78;;
16450;SDS011;12243;42.708;23.310;2023-05-07T14:19:54;2.90;;;2.65;;
16450;SDS011;12243;42.708;23.310;2023-05-07T14:22:21;2.72;;;2.50;;
16450;SDS011;12243;42.708;23.310;2023-05-07T14:24:48;4.15;;;2.70;;
16450;SDS011;12243;42.708;23.310;2023-05-07T14:27:16;3.45;;;3.25;;
16450;SDS011;12243;42.708;23.310;2023-05-07T14:29:43;3.15;;;2.95;;
16450;SDS011;12243;42.708;23.310;2023-05-07T14:32:10;3.20;;;2.90;;
16450;SDS011;12243;42.708;23.310;2023-05-07T14:34:37;3.38;;;3.13;;
16450;SDS011;12243;42.708;23.310;2023-05-07T14:37:06;4.15;;;2.78;;
16450;SDS011;12243;42.708;23.310;2023-05-07T14:39:32;3.25;;;2.75;;
16450;SDS011;12243;42.708;23.310;2023-05-07T14:41:59;4.32;;;3.92;;
16450;SDS011;12243;42.708;23.310;2023-05-07T14:44:26;3.20;;;2.95;;